sensor_id;sensor_type;location;lat;lon;timestamp;temperature;humidity
10306;DHT22;5198;52.382;9.020;2024-03-08T00:02:39;2.80;99.90
10306;DHT22;5198;52.382;9.020;2024-03-08T00:06:42;2.80;99.90
10306;DHT22;5198;52.382;9.020;2024-03-08T00:10:48;2.80;99.90
10306;DHT22;5198;52.382;9.020;2024-03-08T00:14:51;2.80;99.90
10306;DHT22;5198;52.382;9.020;2024-03-08T00:18:56;2.70;99.90
10306;DHT22;5198;52.382;9.020;2024-03-08T00:22:59;2.70;99.90
10306;DHT22;5198;52.382;9.020;2024-03-08T00:27:03;2.70;99.90
10306;DHT22;5198;52.382;9.020;2024-03-08T00:31:08;2.60;99.90
10306;DHT22;5198;52.382;9.020;2024-03-08T00:35:12;2.60;99.90
10306;DHT22;5198;52.382;9.020;2024-03-08T00:39:16;2.60;99.90
10306;DHT22;5198;52.382;9.020;2024-03-08T00:43:19;2.50;99.90
10306;DHT22;5198;52.382;9.020;2024-03-08T00:47:22;2.50;99.90
10306;DHT22;5198;52.382;9.020;2024-03-08T00:51:27;2.50;99.90
10306;DHT22;5198;52.382;9.020;2024-03-08T00:55:31;2.50;99.90
10306;DHT22;5198;52.382;9.020;2024-03-08T00:59:37;2.40;99.90
10306;DHT22;5198;52.382;9.020;2024-03-08T01:03:41;2.40;99.90
10306;DHT22;5198;52.382;9.020;2024-03-08T01:07:47;2.40;99.90
10306;DHT22;5198;52.382;9.020;2024-03-08T01:11:51;2.40;99.90
10306;DHT22;5198;52.382;9.020;2024-03-08T01:15:56;2.40;99.90
10306;DHT22;5198;52.382;9.020;2024-03-08T01:20:00;2.40;99.90
10306;DHT22;5198;52.382;9.020;2024-03-08T01:24:05;2.30;99.90
10306;DHT22;5198;52.382;9.020;2024-03-08T01:28:08;2.30;99.90
10306;DHT22;5198;52.382;9.020;2024-03-08T01:32:12;2.20;99.90
10306;DHT22;5198;52.382;9.020;2024-03-08T01:36:15;2.20;99.90
10306;DHT22;5198;52.382;9.020;2024-03-08T01:40:21;2.20;99.90
10306;DHT22;5198;52.382;9.020;2024-03-08T01:44:25;2.10;99.90
10306;DHT22;5198;52.382;9.020;2024-03-08T01:48:29;2.10;99.90
10306;DHT22;5198;52.382;9.020;2024-03-08T01:52:33;2.10;99.90
10306;DHT22;5198;52.382;9.020;2024-03-08T01:56:38;2.00;99.90
10306;DHT22;5198;52.382;9.020;2024-03-08T02:00:44;2.00;99.90
10306;DHT22;5198;52.382;9.020;2024-03-08T02:04:48;2.00;99.90
10306;DHT22;5198;52.382;9.020;2024-03-08T02:08:55;2.00;99.90
10306;DHT22;5198;52.382;9.020;2024-03-08T02:13:01;2.00;99.90
10306;DHT22;5198;52.382;9.020;2024-03-08T02:17:05;2.00;99.90
10306;DHT22;5198;52.382;9.020;2024-03-08T02:21:11;1.90;99.90
10306;DHT22;5198;52.382;9.020;2024-03-08T02:25:14;1.90;99.90
10306;DHT22;5198;52.382;9.020;2024-03-08T02:29:19;1.90;99.90
10306;DHT22;5198;52.382;9.020;2024-03-08T02:33:23;1.80;99.90
10306;DHT22;5198;52.382;9.020;2024-03-08T02:37:28;1.80;99.90
10306;DHT22;5198;52.382;9.020;2024-03-08T02:41:32;1.80;99.90
10306;DHT22;5198;52.382;9.020;2024-03-08T02:45:35;1.80;99.90
10306;DHT22;5198;52.382;9.020;2024-03-08T02:49:38;1.80;99.90
10306;DHT22;5198;52.382;9.020;2024-03-08T02:53:43;1.70;99.90
10306;DHT22;5198;52.382;9.020;2024-03-08T02:57:46;1.70;99.90
10306;DHT22;5198;52.382;9.020;2024-03-08T03:01:50;1.70;99.90
10306;DHT22;5198;52.382;9.020;2024-03-08T03:05:53;1.60;99.90
10306;DHT22;5198;52.382;9.020;2024-03-08T03:09:59;1.60;99.90
10306;DHT22;5198;52.382;9.020;2024-03-08T03:14:03;1.60;99.90
10306;DHT22;5198;52.382;9.020;2024-03-08T03:18:06;1.50;99.90
10306;DHT22;5198;52.382;9.020;2024-03-08T03:22:11;1.50;99.90
10306;DHT22;5198;52.382;9.020;2024-03-08T03:26:16;1.40;99.90
10306;DHT22;5198;52.382;9.020;2024-03-08T03:30:19;1.40;99.90
10306;DHT22;5198;52.382;9.020;2024-03-08T03:34:24;1.30;99.90
10306;DHT22;5198;52.382;9.020;2024-03-08T03:38:27;1.30;99.90
10306;DHT22;5198;52.382;9.020;2024-03-08T03:42:32;1.30;99.90
10306;DHT22;5198;52.382;9.020;2024-03-08T03:46:36;1.20;99.90
10306;DHT22;5198;52.382;9.020;2024-03-08T03:50:39;1.20;99.90
10306;DHT22;5198;52.382;9.020;2024-03-08T03:54:42;1.20;99.90
10306;DHT22;5198;52.382;9.020;2024-03-08T03:58:47;1.10;99.90
10306;DHT22;5198;52.382;9.020;2024-03-08T04:02:51;1.10;99.90
10306;DHT22;5198;52.382;9.020;2024-03-08T04:06:55;1.10;99.90
10306;DHT22;5198;52.382;9.020;2024-03-08T04:10:58;1.00;99.90
10306;DHT22;5198;52.382;9.020;2024-03-08T04:15:05;1.00;99.90
10306;DHT22;5198;52.382;9.020;2024-03-08T04:19:09;0.90;99.90
10306;DHT22;5198;52.382;9.020;2024-03-08T04:23:12;0.90;99.90
10306;DHT22;5198;52.382;9.020;2024-03-08T04:27:16;0.80;99.90
10306;DHT22;5198;52.382;9.020;2024-03-08T04:31:20;0.80;99.90
10306;DHT22;5198;52.382;9.020;2024-03-08T04:35:24;0.80;99.90
10306;DHT22;5198;52.382;9.020;2024-03-08T04:39:27;0.70;99.90
10306;DHT22;5198;52.382;9.020;2024-03-08T04:43:31;0.70;99.90
10306;DHT22;5198;52.382;9.020;2024-03-08T04:47:35;0.70;99.90
10306;DHT22;5198;52.382;9.020;2024-03-08T04:51:40;0.70;99.90
10306;DHT22;5198;52.382;9.020;2024-03-08T04:55:43;0.60;99.90
10306;DHT22;5198;52.382;9.020;2024-03-08T04:59:46;0.60;99.90
10306;DHT22;5198;52.382;9.020;2024-03-08T05:03:51;0.60;99.90
10306;DHT22;5198;52.382;9.020;2024-03-08T05:08:03;0.60;99.90
10306;DHT22;5198;52.382;9.020;2024-03-08T05:12:07;0.60;99.90
10306;DHT22;5198;52.382;9.020;2024-03-08T05:16:11;0.60;99.90
10306;DHT22;5198;52.382;9.020;2024-03-08T05:20:18;0.60;99.90
10306;DHT22;5198;52.382;9.020;2024-03-08T05:24:22;0.50;99.90
10306;DHT22;5198;52.382;9.020;2024-03-08T05:28:25;0.50;99.90
10306;DHT22;5198;52.382;9.020;2024-03-08T05:32:28;0.50;99.90
10306;DHT22;5198;52.382;9.020;2024-03-08T05:36:34;0.50;99.90
10306;DHT22;5198;52.382;9.020;2024-03-08T05:40:37;0.50;99.90
10306;DHT22;5198;52.382;9.020;2024-03-08T05:44:40;0.40;99.90
10306;DHT22;5198;52.382;9.020;2024-03-08T05:48:44;0.40;99.90
10306;DHT22;5198;52.382;9.020;2024-03-08T05:52:48;0.40;99.90
10306;DHT22;5198;52.382;9.020;2024-03-08T05:56:52;0.40;99.90
10306;DHT22;5198;52.382;9.020;2024-03-08T06:00:56;0.40;99.90
10306;DHT22;5198;52.382;9.020;2024-03-08T06:05:00;0.40;99.90
10306;DHT22;5198;52.382;9.020;2024-03-08T06:09:05;0.40;99.90
10306;DHT22;5198;52.382;9.020;2024-03-08T06:13:15;0.40;99.90
10306;DHT22;5198;52.382;9.020;2024-03-08T06:17:23;0.30;99.90
10306;DHT22;5198;52.382;9.020;2024-03-08T06:21:27;0.40;99.90
10306;DHT22;5198;52.382;9.020;2024-03-08T06:25:33;0.40;99.90
10306;DHT22;5198;52.382;9.020;2024-03-08T06:29:37;0.50;99.90
10306;DHT22;5198;52.382;9.020;2024-03-08T06:33:41;0.60;99.90
10306;DHT22;5198;52.382;9.020;2024-03-08T06:37:45;0.70;99.90
10306;DHT22;5198;52.382;9.020;2024-03-08T06:41:50;0.80;99.90
10306;DHT22;5198;52.382;9.020;2024-03-08T06:45:54;0.90;99.90
10306;DHT22;5198;52.382;9.020;2024-03-08T06:49:57;1.00;99.90
10306;DHT22;5198;52.382;9.020;2024-03-08T06:54:02;1.10;99.90
10306;DHT22;5198;52.382;9.020;2024-03-08T06:58:12;1.20;99.90
10306;DHT22;5198;52.382;9.020;2024-03-08T07:02:15;1.30;99.90
10306;DHT22;5198;52.382;9.020;2024-03-08T07:06:19;1.40;99.90
10306;DHT22;5198;52.382;9.020;2024-03-08T07:10:24;1.50;99.90
10306;DHT22;5198;52.382;9.020;2024-03-08T07:14:30;1.60;99.90
10306;DHT22;5198;52.382;9.020;2024-03-08T07:18:36;1.80;99.90
10306;DHT22;5198;52.382;9.020;2024-03-08T07:22:42;2.10;99.90
10306;DHT22;5198;52.382;9.020;2024-03-08T07:26:49;2.40;99.90
10306;DHT22;5198;52.382;9.020;2024-03-08T07:30:56;2.70;99.90
10306;DHT22;5198;52.382;9.020;2024-03-08T07:35:11;3.10;99.90
10306;DHT22;5198;52.382;9.020;2024-03-08T07:39:15;3.40;99.90
10306;DHT22;5198;52.382;9.020;2024-03-08T07:43:19;3.80;99.90
10306;DHT22;5198;52.382;9.020;2024-03-08T07:47:23;4.10;99.90
10306;DHT22;5198;52.382;9.020;2024-03-08T07:51:28;4.30;99.90
10306;DHT22;5198;52.382;9.020;2024-03-08T07:55:32;4.70;99.90
10306;DHT22;5198;52.382;9.020;2024-03-08T07:59:37;4.90;99.90
10306;DHT22;5198;52.382;9.020;2024-03-08T08:03:42;5.20;99.90
10306;DHT22;5198;52.382;9.020;2024-03-08T08:07:45;5.50;99.90
10306;DHT22;5198;52.382;9.020;2024-03-08T08:11:53;5.80;99.90
10306;DHT22;5198;52.382;9.020;2024-03-08T08:15:56;6.10;99.90
10306;DHT22;5198;52.382;9.020;2024-03-08T08:20:01;6.30;99.90
10306;DHT22;5198;52.382;9.020;2024-03-08T08:24:07;6.50;99.90
10306;DHT22;5198;52.382;9.020;2024-03-08T08:28:11;6.80;99.90
10306;DHT22;5198;52.382;9.020;2024-03-08T08:32:14;7.00;99.90
10306;DHT22;5198;52.382;9.020;2024-03-08T08:36:19;7.20;99.90
10306;DHT22;5198;52.382;9.020;2024-03-08T08:40:22;7.40;99.90
10306;DHT22;5198;52.382;9.020;2024-03-08T08:44:29;7.70;99.90
10306;DHT22;5198;52.382;9.020;2024-03-08T08:48:33;8.00;99.90
10306;DHT22;5198;52.382;9.020;2024-03-08T08:52:38;8.10;99.90
10306;DHT22;5198;52.382;9.020;2024-03-08T08:56:42;8.40;99.90
10306;DHT22;5198;52.382;9.020;2024-03-08T09:00:46;8.60;99.90
10306;DHT22;5198;52.382;9.020;2024-03-08T09:04:49;8.90;99.90
10306;DHT22;5198;52.382;9.020;2024-03-08T09:08:54;9.10;99.90
10306;DHT22;5198;52.382;9.020;2024-03-08T09:12:58;9.30;99.90
10306;DHT22;5198;52.382;9.020;2024-03-08T09:17:02;9.50;99.90
10306;DHT22;5198;52.382;9.020;2024-03-08T09:21:06;9.80;99.90
10306;DHT22;5198;52.382;9.020;2024-03-08T09:25:42;10.00;99.90
10306;DHT22;5198;52.382;9.020;2024-03-08T09:30:15;10.20;99.90
10306;DHT22;5198;52.382;9.020;2024-03-08T09:34:20;10.40;99.90
10306;DHT22;5198;52.382;9.020;2024-03-08T09:38:30;10.60;99.90
10306;DHT22;5198;52.382;9.020;2024-03-08T09:42:34;10.80;99.90
10306;DHT22;5198;52.382;9.020;2024-03-08T09:46:39;11.00;99.90
10306;DHT22;5198;52.382;9.020;2024-03-08T09:50:43;11.20;99.90
10306;DHT22;5198;52.382;9.020;2024-03-08T09:54:47;11.40;99.90
10306;DHT22;5198;52.382;9.020;2024-03-08T09:58:53;11.60;99.90
10306;DHT22;5198;52.382;9.020;2024-03-08T10:03:22;11.60;99.90
10306;DHT22;5198;52.382;9.020;2024-03-08T10:07:25;11.80;99.90
10306;DHT22;5198;52.382;9.020;2024-03-08T10:11:29;12.00;99.90
10306;DHT22;5198;52.382;9.020;2024-03-08T10:15:34;12.20;99.90
10306;DHT22;5198;52.382;9.020;2024-03-08T10:19:38;12.30;99.90
10306;DHT22;5198;52.382;9.020;2024-03-08T10:23:41;12.50;99.90
10306;DHT22;5198;52.382;9.020;2024-03-08T10:27:50;12.60;99.90
10306;DHT22;5198;52.382;9.020;2024-03-08T10:31:54;12.70;99.90
10306;DHT22;5198;52.382;9.020;2024-03-08T10:36:00;12.90;99.90
10306;DHT22;5198;52.382;9.020;2024-03-08T10:40:07;12.90;99.90
10306;DHT22;5198;52.382;9.020;2024-03-08T10:44:19;12.90;99.90
10306;DHT22;5198;52.382;9.020;2024-03-08T10:48:30;12.90;99.90
10306;DHT22;5198;52.382;9.020;2024-03-08T10:52:40;13.00;99.90
10306;DHT22;5198;52.382;9.020;2024-03-08T10:56:43;13.10;99.90
10306;DHT22;5198;52.382;9.020;2024-03-08T11:00:47;13.10;99.90
10306;DHT22;5198;52.382;9.020;2024-03-08T11:04:53;13.20;99.90
10306;DHT22;5198;52.382;9.020;2024-03-08T11:08:59;13.20;99.90
10306;DHT22;5198;52.382;9.020;2024-03-08T11:13:02;13.20;99.90
10306;DHT22;5198;52.382;9.020;2024-03-08T11:17:06;13.20;99.90
10306;DHT22;5198;52.382;9.020;2024-03-08T11:21:12;13.30;99.90
10306;DHT22;5198;52.382;9.020;2024-03-08T11:25:33;13.40;99.90
10306;DHT22;5198;52.382;9.020;2024-03-08T11:29:41;13.40;99.90
10306;DHT22;5198;52.382;9.020;2024-03-08T11:33:46;13.40;99.90
10306;DHT22;5198;52.382;9.020;2024-03-08T11:37:52;13.40;99.90
10306;DHT22;5198;52.382;9.020;2024-03-08T11:41:56;13.50;99.90
10306;DHT22;5198;52.382;9.020;2024-03-08T11:46:07;13.40;99.90
10306;DHT22;5198;52.382;9.020;2024-03-08T11:50:11;13.30;99.90
10306;DHT22;5198;52.382;9.020;2024-03-08T11:54:16;13.40;99.90
10306;DHT22;5198;52.382;9.020;2024-03-08T11:58:19;13.40;99.90
10306;DHT22;5198;52.382;9.020;2024-03-08T12:02:23;13.30;99.90
10306;DHT22;5198;52.382;9.020;2024-03-08T12:06:36;13.40;99.90
10306;DHT22;5198;52.382;9.020;2024-03-08T12:10:43;13.50;99.90
10306;DHT22;5198;52.382;9.020;2024-03-08T12:14:46;13.40;99.90
10306;DHT22;5198;52.382;9.020;2024-03-08T12:18:51;13.50;99.90
10306;DHT22;5198;52.382;9.020;2024-03-08T12:22:56;13.50;99.90
10306;DHT22;5198;52.382;9.020;2024-03-08T12:27:01;13.50;99.90
10306;DHT22;5198;52.382;9.020;2024-03-08T12:31:08;13.40;99.90
10306;DHT22;5198;52.382;9.020;2024-03-08T12:35:13;13.50;99.90
10306;DHT22;5198;52.382;9.020;2024-03-08T12:39:17;13.40;99.90
10306;DHT22;5198;52.382;9.020;2024-03-08T12:43:25;13.30;99.90
10306;DHT22;5198;52.382;9.020;2024-03-08T12:47:33;13.30;99.90
10306;DHT22;5198;52.382;9.020;2024-03-08T12:51:36;13.30;99.90
10306;DHT22;5198;52.382;9.020;2024-03-08T12:55:41;13.20;99.90
10306;DHT22;5198;52.382;9.020;2024-03-08T12:59:45;13.10;99.90
10306;DHT22;5198;52.382;9.020;2024-03-08T13:03:49;13.10;99.90
10306;DHT22;5198;52.382;9.020;2024-03-08T13:07:52;12.90;99.90
10306;DHT22;5198;52.382;9.020;2024-03-08T13:11:57;12.60;99.90
10306;DHT22;5198;52.382;9.020;2024-03-08T13:16:05;12.30;99.90
10306;DHT22;5198;52.382;9.020;2024-03-08T13:20:11;12.10;99.90
10306;DHT22;5198;52.382;9.020;2024-03-08T13:24:31;11.80;99.90
10306;DHT22;5198;52.382;9.020;2024-03-08T13:28:35;11.60;99.90
10306;DHT22;5198;52.382;9.020;2024-03-08T13:32:41;11.50;99.90
10306;DHT22;5198;52.382;9.020;2024-03-08T13:36:45;11.40;99.90
10306;DHT22;5198;52.382;9.020;2024-03-08T13:40:49;11.30;99.90
10306;DHT22;5198;52.382;9.020;2024-03-08T13:44:54;11.20;99.90
10306;DHT22;5198;52.382;9.020;2024-03-08T13:49:04;11.00;99.90
10306;DHT22;5198;52.382;9.020;2024-03-08T13:53:10;11.00;99.90
10306;DHT22;5198;52.382;9.020;2024-03-08T13:57:14;10.90;99.90
10306;DHT22;5198;52.382;9.020;2024-03-08T14:01:19;10.70;99.90
10306;DHT22;5198;52.382;9.020;2024-03-08T14:05:25;10.60;99.90
10306;DHT22;5198;52.382;9.020;2024-03-08T14:09:29;10.60;99.90
10306;DHT22;5198;52.382;9.020;2024-03-08T14:13:33;10.60;99.90
10306;DHT22;5198;52.382;9.020;2024-03-08T14:17:36;10.50;99.90
10306;DHT22;5198;52.382;9.020;2024-03-08T14:21:41;10.40;99.90
10306;DHT22;5198;52.382;9.020;2024-03-08T14:25:45;10.40;99.90
10306;DHT22;5198;52.382;9.020;2024-03-08T14:29:51;10.40;99.90
10306;DHT22;5198;52.382;9.020;2024-03-08T14:33:57;10.40;99.90
10306;DHT22;5198;52.382;9.020;2024-03-08T14:38:02;10.40;99.90
10306;DHT22;5198;52.382;9.020;2024-03-08T14:42:06;10.40;99.90
10306;DHT22;5198;52.382;9.020;2024-03-08T14:46:10;10.50;99.90
10306;DHT22;5198;52.382;9.020;2024-03-08T14:50:16;10.60;99.90
10306;DHT22;5198;52.382;9.020;2024-03-08T14:54:21;10.70;99.90
10306;DHT22;5198;52.382;9.020;2024-03-08T14:58:25;10.80;99.90
10306;DHT22;5198;52.382;9.020;2024-03-08T15:02:29;10.90;99.90
10306;DHT22;5198;52.382;9.020;2024-03-08T15:06:34;10.90;99.90
10306;DHT22;5198;52.382;9.020;2024-03-08T15:10:40;10.90;99.90
10306;DHT22;5198;52.382;9.020;2024-03-08T15:14:44;10.90;99.90
10306;DHT22;5198;52.382;9.020;2024-03-08T15:18:48;10.90;99.90
10306;DHT22;5198;52.382;9.020;2024-03-08T15:22:54;10.90;99.90
10306;DHT22;5198;52.382;9.020;2024-03-08T15:26:59;10.90;99.90
10306;DHT22;5198;52.382;9.020;2024-03-08T15:31:04;10.90;99.90
10306;DHT22;5198;52.382;9.020;2024-03-08T15:35:08;10.80;99.90
10306;DHT22;5198;52.382;9.020;2024-03-08T15:39:15;10.80;99.90
10306;DHT22;5198;52.382;9.020;2024-03-08T15:43:20;10.70;99.90
10306;DHT22;5198;52.382;9.020;2024-03-08T15:47:24;10.80;99.90
10306;DHT22;5198;52.382;9.020;2024-03-08T15:51:28;10.80;99.90
10306;DHT22;5198;52.382;9.020;2024-03-08T15:55:33;11.00;99.90
10306;DHT22;5198;52.382;9.020;2024-03-08T15:59:38;11.00;99.90
10306;DHT22;5198;52.382;9.020;2024-03-08T16:03:43;11.10;99.90
10306;DHT22;5198;52.382;9.020;2024-03-08T16:07:47;11.20;99.90
10306;DHT22;5198;52.382;9.020;2024-03-08T16:11:51;11.10;99.90
10306;DHT22;5198;52.382;9.020;2024-03-08T16:15:57;11.00;99.90
10306;DHT22;5198;52.382;9.020;2024-03-08T16:20:00;11.00;99.90
10306;DHT22;5198;52.382;9.020;2024-03-08T16:24:05;11.00;99.90
10306;DHT22;5198;52.382;9.020;2024-03-08T16:28:09;10.80;99.90
10306;DHT22;5198;52.382;9.020;2024-03-08T16:32:14;10.70;99.90
10306;DHT22;5198;52.382;9.020;2024-03-08T16:36:17;10.60;99.90
10306;DHT22;5198;52.382;9.020;2024-03-08T16:40:20;10.40;99.90
10306;DHT22;5198;52.382;9.020;2024-03-08T16:44:25;10.30;99.90
10306;DHT22;5198;52.382;9.020;2024-03-08T16:48:30;10.00;99.90
10306;DHT22;5198;52.382;9.020;2024-03-08T16:52:34;9.80;99.90
10306;DHT22;5198;52.382;9.020;2024-03-08T16:56:38;9.60;99.90
10306;DHT22;5198;52.382;9.020;2024-03-08T17:00:41;9.50;99.90
10306;DHT22;5198;52.382;9.020;2024-03-08T17:04:46;9.30;99.90
10306;DHT22;5198;52.382;9.020;2024-03-08T17:08:49;9.20;99.90
10306;DHT22;5198;52.382;9.020;2024-03-08T17:12:55;9.00;99.90
10306;DHT22;5198;52.382;9.020;2024-03-08T17:17:00;8.80;99.90
10306;DHT22;5198;52.382;9.020;2024-03-08T17:21:06;8.70;99.90
10306;DHT22;5198;52.382;9.020;2024-03-08T17:25:15;8.60;99.90
10306;DHT22;5198;52.382;9.020;2024-03-08T17:29:23;8.50;99.90
10306;DHT22;5198;52.382;9.020;2024-03-08T17:33:27;8.40;99.90
10306;DHT22;5198;52.382;9.020;2024-03-08T17:37:38;8.30;99.90
10306;DHT22;5198;52.382;9.020;2024-03-08T17:41:41;8.30;99.90
10306;DHT22;5198;52.382;9.020;2024-03-08T17:45:45;8.20;99.90
10306;DHT22;5198;52.382;9.020;2024-03-08T17:49:49;8.10;99.90
10306;DHT22;5198;52.382;9.020;2024-03-08T17:53:54;8.00;99.90
10306;DHT22;5198;52.382;9.020;2024-03-08T17:57:57;8.00;99.90
10306;DHT22;5198;52.382;9.020;2024-03-08T18:02:02;7.90;99.90
10306;DHT22;5198;52.382;9.020;2024-03-08T18:06:05;7.80;99.90
10306;DHT22;5198;52.382;9.020;2024-03-08T18:10:13;7.80;99.90
10306;DHT22;5198;52.382;9.020;2024-03-08T18:14:21;7.70;99.90
10306;DHT22;5198;52.382;9.020;2024-03-08T18:18:25;7.70;99.90
10306;DHT22;5198;52.382;9.020;2024-03-08T18:22:30;7.60;99.90
10306;DHT22;5198;52.382;9.020;2024-03-08T18:26:36;7.60;99.90
10306;DHT22;5198;52.382;9.020;2024-03-08T18:30:40;7.50;99.90
10306;DHT22;5198;52.382;9.020;2024-03-08T18:34:45;7.50;99.90
10306;DHT22;5198;52.382;9.020;2024-03-08T18:38:49;7.40;99.90
10306;DHT22;5198;52.382;9.020;2024-03-08T18:42:54;7.40;99.90
10306;DHT22;5198;52.382;9.020;2024-03-08T18:46:59;7.40;99.90
10306;DHT22;5198;52.382;9.020;2024-03-08T18:51:03;7.40;99.90
10306;DHT22;5198;52.382;9.020;2024-03-08T18:55:08;7.30;99.90
10306;DHT22;5198;52.382;9.020;2024-03-08T18:59:16;7.30;99.90
10306;DHT22;5198;52.382;9.020;2024-03-08T19:03:21;7.30;99.90
10306;DHT22;5198;52.382;9.020;2024-03-08T19:07:25;7.20;99.90
10306;DHT22;5198;52.382;9.020;2024-03-08T19:11:30;7.20;99.90
10306;DHT22;5198;52.382;9.020;2024-03-08T19:15:35;7.10;99.90
10306;DHT22;5198;52.382;9.020;2024-03-08T19:19:41;7.10;99.90
10306;DHT22;5198;52.382;9.020;2024-03-08T19:23:45;7.10;99.90
10306;DHT22;5198;52.382;9.020;2024-03-08T19:27:50;7.00;99.90
10306;DHT22;5198;52.382;9.020;2024-03-08T19:31:58;7.00;99.90
10306;DHT22;5198;52.382;9.020;2024-03-08T19:36:02;6.90;99.90
10306;DHT22;5198;52.382;9.020;2024-03-08T19:40:14;6.90;99.90
10306;DHT22;5198;52.382;9.020;2024-03-08T19:44:21;6.90;99.90
10306;DHT22;5198;52.382;9.020;2024-03-08T19:48:28;6.80;99.90
10306;DHT22;5198;52.382;9.020;2024-03-08T19:52:31;6.80;99.90
10306;DHT22;5198;52.382;9.020;2024-03-08T19:56:40;6.70;99.90
10306;DHT22;5198;52.382;9.020;2024-03-08T20:00:47;6.70;99.90
10306;DHT22;5198;52.382;9.020;2024-03-08T20:04:56;6.60;99.90
10306;DHT22;5198;52.382;9.020;2024-03-08T20:09:00;6.60;99.90
10306;DHT22;5198;52.382;9.020;2024-03-08T20:13:05;6.60;99.90
10306;DHT22;5198;52.382;9.020;2024-03-08T20:17:09;6.50;99.90
10306;DHT22;5198;52.382;9.020;2024-03-08T20:21:16;6.50;99.90
10306;DHT22;5198;52.382;9.020;2024-03-08T20:25:21;6.50;99.90
10306;DHT22;5198;52.382;9.020;2024-03-08T20:29:28;6.40;99.90
10306;DHT22;5198;52.382;9.020;2024-03-08T20:33:34;6.40;99.90
10306;DHT22;5198;52.382;9.020;2024-03-08T20:37:41;6.30;99.90
10306;DHT22;5198;52.382;9.020;2024-03-08T20:41:44;6.30;99.90
10306;DHT22;5198;52.382;9.020;2024-03-08T20:45:47;6.30;99.90
10306;DHT22;5198;52.382;9.020;2024-03-08T20:49:51;6.20;99.90
10306;DHT22;5198;52.382;9.020;2024-03-08T20:53:57;6.20;99.90
10306;DHT22;5198;52.382;9.020;2024-03-08T20:58:02;6.10;99.90
10306;DHT22;5198;52.382;9.020;2024-03-08T21:02:08;6.10;99.90
10306;DHT22;5198;52.382;9.020;2024-03-08T21:06:12;6.10;99.90
10306;DHT22;5198;52.382;9.020;2024-03-08T21:10:22;6.10;99.90
10306;DHT22;5198;52.382;9.020;2024-03-08T21:14:26;6.00;99.90
10306;DHT22;5198;52.382;9.020;2024-03-08T21:18:29;6.00;99.90
10306;DHT22;5198;52.382;9.020;2024-03-08T21:22:33;5.90;99.90
10306;DHT22;5198;52.382;9.020;2024-03-08T21:26:38;5.90;99.90
10306;DHT22;5198;52.382;9.020;2024-03-08T21:30:41;5.80;99.90
10306;DHT22;5198;52.382;9.020;2024-03-08T21:34:46;5.80;99.90
10306;DHT22;5198;52.382;9.020;2024-03-08T21:38:50;5.70;99.90
10306;DHT22;5198;52.382;9.020;2024-03-08T21:42:55;5.70;99.90
10306;DHT22;5198;52.382;9.020;2024-03-08T21:47:00;5.60;99.90
10306;DHT22;5198;52.382;9.020;2024-03-08T21:51:07;5.60;99.90
10306;DHT22;5198;52.382;9.020;2024-03-08T21:55:10;5.50;99.90
10306;DHT22;5198;52.382;9.020;2024-03-08T21:59:15;5.50;99.90
10306;DHT22;5198;52.382;9.020;2024-03-08T22:03:21;5.50;99.90
10306;DHT22;5198;52.382;9.020;2024-03-08T22:07:29;5.40;99.90
10306;DHT22;5198;52.382;9.020;2024-03-08T22:11:34;5.40;99.90
10306;DHT22;5198;52.382;9.020;2024-03-08T22:15:40;5.40;99.90
10306;DHT22;5198;52.382;9.020;2024-03-08T22:19:47;5.30;99.90
10306;DHT22;5198;52.382;9.020;2024-03-08T22:23:52;5.30;99.90
10306;DHT22;5198;52.382;9.020;2024-03-08T22:27:57;5.30;99.90
10306;DHT22;5198;52.382;9.020;2024-03-08T22:32:02;5.20;99.90
10306;DHT22;5198;52.382;9.020;2024-03-08T22:36:10;5.20;99.90
10306;DHT22;5198;52.382;9.020;2024-03-08T22:40:15;5.20;99.90
10306;DHT22;5198;52.382;9.020;2024-03-08T22:44:18;5.10;99.90
10306;DHT22;5198;52.382;9.020;2024-03-08T22:48:26;5.10;99.90
10306;DHT22;5198;52.382;9.020;2024-03-08T22:52:29;5.10;99.90
10306;DHT22;5198;52.382;9.020;2024-03-08T22:56:33;5.00;99.90
10306;DHT22;5198;52.382;9.020;2024-03-08T23:00:37;5.00;99.90
10306;DHT22;5198;52.382;9.020;2024-03-08T23:04:59;5.00;99.90
10306;DHT22;5198;52.382;9.020;2024-03-08T23:09:03;4.90;99.90
10306;DHT22;5198;52.382;9.020;2024-03-08T23:13:14;4.90;99.90
10306;DHT22;5198;52.382;9.020;2024-03-08T23:17:18;4.90;99.90
10306;DHT22;5198;52.382;9.020;2024-03-08T23:21:22;4.80;99.90
10306;DHT22;5198;52.382;9.020;2024-03-08T23:25:26;4.80;99.90
10306;DHT22;5198;52.382;9.020;2024-03-08T23:29:30;4.80;99.90
10306;DHT22;5198;52.382;9.020;2024-03-08T23:33:35;4.80;99.90
10306;DHT22;5198;52.382;9.020;2024-03-08T23:37:41;4.70;99.90
10306;DHT22;5198;52.382;9.020;2024-03-08T23:41:51;4.60;99.90
10306;DHT22;5198;52.382;9.020;2024-03-08T23:45:54;4.60;99.90
10306;DHT22;5198;52.382;9.020;2024-03-08T23:49:58;4.60;99.90
10306;DHT22;5198;52.382;9.020;2024-03-08T23:54:03;4.50;99.90
10306;DHT22;5198;52.382;9.020;2024-03-08T23:58:09;4.50;99.90
